sensor_id;sensor_type;location;lat;lon;timestamp;temperature;humidity
27671;DHT22;15077;49.704;9.908;2023-01-04T00:01:18;8.50;69.30
27671;DHT22;15077;49.704;9.908;2023-01-04T00:03:48;8.50;69.20
27671;DHT22;15077;49.704;9.908;2023-01-04T00:06:15;8.50;69.20
27671;DHT22;15077;49.704;9.908;2023-01-04T00:08:52;8.40;69.20
27671;DHT22;15077;49.704;9.908;2023-01-04T00:11:21;8.40;69.40
27671;DHT22;15077;49.704;9.908;2023-01-04T00:13:51;8.40;69.40
27671;DHT22;15077;49.704;9.908;2023-01-04T00:16:22;8.40;69.50
27671;DHT22;15077;49.704;9.908;2023-01-04T00:18:51;8.30;69.50
27671;DHT22;15077;49.704;9.908;2023-01-04T00:21:22;8.30;69.40
27671;DHT22;15077;49.704;9.908;2023-01-04T00:23:53;8.30;69.40
27671;DHT22;15077;49.704;9.908;2023-01-04T00:26:23;8.30;69.30
27671;DHT22;15077;49.704;9.908;2023-01-04T00:29:00;8.30;69.30
27671;DHT22;15077;49.704;9.908;2023-01-04T00:31:28;8.30;69.40
27671;DHT22;15077;49.704;9.908;2023-01-04T00:34:00;8.30;69.20
27671;DHT22;15077;49.704;9.908;2023-01-04T00:36:28;8.30;69.30
27671;DHT22;15077;49.704;9.908;2023-01-04T00:38:54;8.20;69.10
27671;DHT22;15077;49.704;9.908;2023-01-04T00:41:45;8.30;69.10
27671;DHT22;15077;49.704;9.908;2023-01-04T00:44:12;8.30;69.10
27671;DHT22;15077;49.704;9.908;2023-01-04T00:46:39;8.20;69.00
27671;DHT22;15077;49.704;9.908;2023-01-04T00:49:07;8.20;69.00
27671;DHT22;15077;49.704;9.908;2023-01-04T00:51:36;8.20;69.00
27671;DHT22;15077;49.704;9.908;2023-01-04T00:54:06;8.20;68.90
27671;DHT22;15077;49.704;9.908;2023-01-04T00:56:35;8.20;68.90
27671;DHT22;15077;49.704;9.908;2023-01-04T00:59:02;8.20;68.90
27671;DHT22;15077;49.704;9.908;2023-01-04T01:01:30;8.20;68.90
27671;DHT22;15077;49.704;9.908;2023-01-04T01:03:59;8.20;68.80
27671;DHT22;15077;49.704;9.908;2023-01-04T01:06:30;8.20;68.70
27671;DHT22;15077;49.704;9.908;2023-01-04T01:09:01;8.20;68.60
27671;DHT22;15077;49.704;9.908;2023-01-04T01:11:29;8.20;68.50
27671;DHT22;15077;49.704;9.908;2023-01-04T01:13:57;8.20;68.50
27671;DHT22;15077;49.704;9.908;2023-01-04T01:16:24;8.20;68.40
27671;DHT22;15077;49.704;9.908;2023-01-04T01:19:00;8.20;68.40
27671;DHT22;15077;49.704;9.908;2023-01-04T01:21:26;8.20;68.30
27671;DHT22;15077;49.704;9.908;2023-01-04T01:23:57;8.10;68.20
27671;DHT22;15077;49.704;9.908;2023-01-04T01:26:24;8.10;68.10
27671;DHT22;15077;49.704;9.908;2023-01-04T01:28:51;8.10;68.00
27671;DHT22;15077;49.704;9.908;2023-01-04T01:31:20;8.10;67.90
27671;DHT22;15077;49.704;9.908;2023-01-04T01:33:50;8.00;67.90
27671;DHT22;15077;49.704;9.908;2023-01-04T01:36:18;8.00;68.00
27671;DHT22;15077;49.704;9.908;2023-01-04T01:38:45;8.00;68.10
27671;DHT22;15077;49.704;9.908;2023-01-04T01:41:24;7.90;68.20
27671;DHT22;15077;49.704;9.908;2023-01-04T01:46:43;7.90;68.90
27671;DHT22;15077;49.704;9.908;2023-01-04T01:49:24;7.80;68.80
27671;DHT22;15077;49.704;9.908;2023-01-04T01:51:59;7.80;68.80
27671;DHT22;15077;49.704;9.908;2023-01-04T01:54:34;7.80;68.90
27671;DHT22;15077;49.704;9.908;2023-01-04T01:57:08;7.80;69.00
27671;DHT22;15077;49.704;9.908;2023-01-04T01:59:41;7.80;69.00
27671;DHT22;15077;49.704;9.908;2023-01-04T02:02:19;7.80;69.10
27671;DHT22;15077;49.704;9.908;2023-01-04T02:04:47;7.80;69.00
27671;DHT22;15077;49.704;9.908;2023-01-04T02:07:24;7.80;69.10
27671;DHT22;15077;49.704;9.908;2023-01-04T02:09:53;7.80;69.30
27671;DHT22;15077;49.704;9.908;2023-01-04T02:12:20;7.80;69.20
27671;DHT22;15077;49.704;9.908;2023-01-04T02:14:49;7.80;69.80
27671;DHT22;15077;49.704;9.908;2023-01-04T02:20:24;7.90;71.00
27671;DHT22;15077;49.704;9.908;2023-01-04T02:26:13;7.90;70.60
27671;DHT22;15077;49.704;9.908;2023-01-04T02:38:16;8.00;70.90
27671;DHT22;15077;49.704;9.908;2023-01-04T02:44:13;8.00;70.80
27671;DHT22;15077;49.704;9.908;2023-01-04T02:47:06;8.00;70.60
27671;DHT22;15077;49.704;9.908;2023-01-04T02:49:34;8.00;70.60
27671;DHT22;15077;49.704;9.908;2023-01-04T02:52:22;8.00;70.60
27671;DHT22;15077;49.704;9.908;2023-01-04T02:54:51;7.90;70.60
27671;DHT22;15077;49.704;9.908;2023-01-04T02:57:42;7.90;70.60
27671;DHT22;15077;49.704;9.908;2023-01-04T03:00:52;7.90;71.00
27671;DHT22;15077;49.704;9.908;2023-01-04T03:03:53;7.90;71.00
27671;DHT22;15077;49.704;9.908;2023-01-04T03:07:25;7.90;71.20
27671;DHT22;15077;49.704;9.908;2023-01-04T03:12:47;7.80;71.30
27671;DHT22;15077;49.704;9.908;2023-01-04T03:15:24;7.80;71.00
27671;DHT22;15077;49.704;9.908;2023-01-04T03:18:10;7.80;71.20
27671;DHT22;15077;49.704;9.908;2023-01-04T03:20:45;7.80;71.50
27671;DHT22;15077;49.704;9.908;2023-01-04T03:23:17;7.70;71.20
27671;DHT22;15077;49.704;9.908;2023-01-04T03:26:20;7.70;71.20
27671;DHT22;15077;49.704;9.908;2023-01-04T03:32:51;7.70;71.20
27671;DHT22;15077;49.704;9.908;2023-01-04T03:39:02;7.70;71.20
27671;DHT22;15077;49.704;9.908;2023-01-04T03:45:35;7.70;71.40
27671;DHT22;15077;49.704;9.908;2023-01-04T03:48:38;7.60;71.30
27671;DHT22;15077;49.704;9.908;2023-01-04T03:51:22;7.60;71.70
27671;DHT22;15077;49.704;9.908;2023-01-04T03:54:07;7.60;71.70
27671;DHT22;15077;49.704;9.908;2023-01-04T03:56:38;7.50;71.50
27671;DHT22;15077;49.704;9.908;2023-01-04T03:59:08;7.50;71.30
27671;DHT22;15077;49.704;9.908;2023-01-04T04:01:36;7.50;71.30
27671;DHT22;15077;49.704;9.908;2023-01-04T04:04:08;7.50;71.40
27671;DHT22;15077;49.704;9.908;2023-01-04T04:06:53;7.40;71.40
27671;DHT22;15077;49.704;9.908;2023-01-04T04:09:37;7.40;71.20
27671;DHT22;15077;49.704;9.908;2023-01-04T04:12:04;7.40;71.40
27671;DHT22;15077;49.704;9.908;2023-01-04T04:14:30;7.40;71.40
27671;DHT22;15077;49.704;9.908;2023-01-04T04:17:00;7.40;71.30
27671;DHT22;15077;49.704;9.908;2023-01-04T04:19:29;7.40;71.30
27671;DHT22;15077;49.704;9.908;2023-01-04T04:21:55;7.40;71.50
27671;DHT22;15077;49.704;9.908;2023-01-04T04:24:24;7.40;71.50
27671;DHT22;15077;49.704;9.908;2023-01-04T04:26:54;7.40;71.70
27671;DHT22;15077;49.704;9.908;2023-01-04T04:29:22;7.40;71.70
27671;DHT22;15077;49.704;9.908;2023-01-04T04:31:49;7.40;71.80
27671;DHT22;15077;49.704;9.908;2023-01-04T04:34:15;7.40;71.90
27671;DHT22;15077;49.704;9.908;2023-01-04T04:36:42;7.40;72.00
27671;DHT22;15077;49.704;9.908;2023-01-04T04:39:11;7.40;72.00
27671;DHT22;15077;49.704;9.908;2023-01-04T04:41:42;7.40;72.00
27671;DHT22;15077;49.704;9.908;2023-01-04T04:44:15;7.40;71.90
27671;DHT22;15077;49.704;9.908;2023-01-04T04:46:45;7.40;72.20
27671;DHT22;15077;49.704;9.908;2023-01-04T04:49:15;7.40;72.10
27671;DHT22;15077;49.704;9.908;2023-01-04T04:51:44;7.40;72.20
27671;DHT22;15077;49.704;9.908;2023-01-04T04:54:15;7.50;72.40
27671;DHT22;15077;49.704;9.908;2023-01-04T04:56:44;7.50;72.50
27671;DHT22;15077;49.704;9.908;2023-01-04T04:59:11;7.50;72.40
27671;DHT22;15077;49.704;9.908;2023-01-04T05:01:38;7.50;72.50
27671;DHT22;15077;49.704;9.908;2023-01-04T05:04:04;7.50;72.30
27671;DHT22;15077;49.704;9.908;2023-01-04T05:06:30;7.60;72.30
27671;DHT22;15077;49.704;9.908;2023-01-04T05:08:57;7.60;72.30
27671;DHT22;15077;49.704;9.908;2023-01-04T05:11:25;7.60;72.30
27671;DHT22;15077;49.704;9.908;2023-01-04T05:14:10;7.70;72.30
27671;DHT22;15077;49.704;9.908;2023-01-04T05:16:37;7.70;72.30
27671;DHT22;15077;49.704;9.908;2023-01-04T05:19:04;7.70;72.50
27671;DHT22;15077;49.704;9.908;2023-01-04T05:21:29;7.70;72.50
27671;DHT22;15077;49.704;9.908;2023-01-04T05:23:56;7.70;72.40
27671;DHT22;15077;49.704;9.908;2023-01-04T05:26:24;7.80;72.50
27671;DHT22;15077;49.704;9.908;2023-01-04T05:28:51;7.80;72.50
27671;DHT22;15077;49.704;9.908;2023-01-04T05:31:17;7.80;72.40
27671;DHT22;15077;49.704;9.908;2023-01-04T05:33:44;7.80;72.50
27671;DHT22;15077;49.704;9.908;2023-01-04T05:36:11;7.90;72.50
27671;DHT22;15077;49.704;9.908;2023-01-04T05:38:39;7.90;72.50
27671;DHT22;15077;49.704;9.908;2023-01-04T05:41:06;7.90;72.30
27671;DHT22;15077;49.704;9.908;2023-01-04T05:43:54;7.90;72.30
27671;DHT22;15077;49.704;9.908;2023-01-04T05:46:21;8.00;72.30
27671;DHT22;15077;49.704;9.908;2023-01-04T05:48:47;8.00;72.20
27671;DHT22;15077;49.704;9.908;2023-01-04T05:51:12;8.00;72.20
27671;DHT22;15077;49.704;9.908;2023-01-04T05:53:39;8.00;72.10
27671;DHT22;15077;49.704;9.908;2023-01-04T05:56:07;8.00;72.00
27671;DHT22;15077;49.704;9.908;2023-01-04T05:58:34;8.00;72.00
27671;DHT22;15077;49.704;9.908;2023-01-04T06:00:59;8.10;72.00
27671;DHT22;15077;49.704;9.908;2023-01-04T06:03:26;8.10;72.00
27671;DHT22;15077;49.704;9.908;2023-01-04T06:05:53;8.10;72.00
27671;DHT22;15077;49.704;9.908;2023-01-04T06:08:20;8.10;72.00
27671;DHT22;15077;49.704;9.908;2023-01-04T06:10:52;8.10;71.80
27671;DHT22;15077;49.704;9.908;2023-01-04T06:13:19;8.20;71.90
27671;DHT22;15077;49.704;9.908;2023-01-04T06:15:45;8.20;71.80
27671;DHT22;15077;49.704;9.908;2023-01-04T06:18:11;8.20;72.00
27671;DHT22;15077;49.704;9.908;2023-01-04T06:20:37;8.20;72.00
27671;DHT22;15077;49.704;9.908;2023-01-04T06:23:04;8.20;72.10
27671;DHT22;15077;49.704;9.908;2023-01-04T06:25:30;8.20;72.10
27671;DHT22;15077;49.704;9.908;2023-01-04T06:27:56;8.20;72.10
27671;DHT22;15077;49.704;9.908;2023-01-04T06:30:22;8.10;72.20
27671;DHT22;15077;49.704;9.908;2023-01-04T06:32:48;8.10;72.10
27671;DHT22;15077;49.704;9.908;2023-01-04T06:35:14;8.20;72.10
27671;DHT22;15077;49.704;9.908;2023-01-04T06:37:40;8.20;72.10
27671;DHT22;15077;49.704;9.908;2023-01-04T06:40:09;8.20;72.10
27671;DHT22;15077;49.704;9.908;2023-01-04T06:42:35;8.20;72.10
27671;DHT22;15077;49.704;9.908;2023-01-04T06:45:16;8.20;72.00
27671;DHT22;15077;49.704;9.908;2023-01-04T06:47:43;8.30;72.00
27671;DHT22;15077;49.704;9.908;2023-01-04T06:50:13;8.30;71.90
27671;DHT22;15077;49.704;9.908;2023-01-04T06:52:45;8.30;72.00
27671;DHT22;15077;49.704;9.908;2023-01-04T06:55:11;8.30;71.90
27671;DHT22;15077;49.704;9.908;2023-01-04T06:57:37;8.30;71.90
27671;DHT22;15077;49.704;9.908;2023-01-04T07:00:04;8.30;71.90
27671;DHT22;15077;49.704;9.908;2023-01-04T07:02:32;8.30;71.80
27671;DHT22;15077;49.704;9.908;2023-01-04T07:05:02;8.30;71.80
27671;DHT22;15077;49.704;9.908;2023-01-04T07:07:32;8.30;71.80
27671;DHT22;15077;49.704;9.908;2023-01-04T07:10:02;8.30;71.80
27671;DHT22;15077;49.704;9.908;2023-01-04T07:12:28;8.30;71.90
27671;DHT22;15077;49.704;9.908;2023-01-04T07:14:54;8.30;71.90
27671;DHT22;15077;49.704;9.908;2023-01-04T07:17:20;8.30;71.90
27671;DHT22;15077;49.704;9.908;2023-01-04T07:19:47;8.30;72.00
27671;DHT22;15077;49.704;9.908;2023-01-04T07:22:15;8.30;72.10
27671;DHT22;15077;49.704;9.908;2023-01-04T07:24:44;8.20;72.10
27671;DHT22;15077;49.704;9.908;2023-01-04T07:27:10;8.30;72.10
27671;DHT22;15077;49.704;9.908;2023-01-04T07:29:37;8.20;72.10
27671;DHT22;15077;49.704;9.908;2023-01-04T07:32:10;8.20;72.10
27671;DHT22;15077;49.704;9.908;2023-01-04T07:34:37;8.20;72.20
27671;DHT22;15077;49.704;9.908;2023-01-04T07:37:07;8.20;72.10
27671;DHT22;15077;49.704;9.908;2023-01-04T07:39:35;8.20;72.10
27671;DHT22;15077;49.704;9.908;2023-01-04T07:42:01;8.20;72.00
27671;DHT22;15077;49.704;9.908;2023-01-04T07:44:27;8.30;72.00
27671;DHT22;15077;49.704;9.908;2023-01-04T07:46:55;8.30;72.00
27671;DHT22;15077;49.704;9.908;2023-01-04T07:49:21;8.30;71.90
27671;DHT22;15077;49.704;9.908;2023-01-04T07:51:48;8.30;71.80
27671;DHT22;15077;49.704;9.908;2023-01-04T07:54:15;8.30;71.80
27671;DHT22;15077;49.704;9.908;2023-01-04T07:56:43;8.30;71.80
27671;DHT22;15077;49.704;9.908;2023-01-04T07:59:11;8.40;71.80
27671;DHT22;15077;49.704;9.908;2023-01-04T08:01:38;8.40;71.80
27671;DHT22;15077;49.704;9.908;2023-01-04T08:04:06;8.40;71.80
27671;DHT22;15077;49.704;9.908;2023-01-04T08:06:34;8.40;71.70
27671;DHT22;15077;49.704;9.908;2023-01-04T08:09:02;8.40;71.60
27671;DHT22;15077;49.704;9.908;2023-01-04T08:11:30;8.40;71.50
27671;DHT22;15077;49.704;9.908;2023-01-04T08:13:56;8.50;72.10
27671;DHT22;15077;49.704;9.908;2023-01-04T08:16:27;8.50;72.10
27671;DHT22;15077;49.704;9.908;2023-01-04T08:19:09;8.50;71.40
27671;DHT22;15077;49.704;9.908;2023-01-04T08:21:38;8.50;71.90
27671;DHT22;15077;49.704;9.908;2023-01-04T08:24:06;8.60;71.30
27671;DHT22;15077;49.704;9.908;2023-01-04T08:26:35;8.60;71.40
27671;DHT22;15077;49.704;9.908;2023-01-04T08:29:01;8.60;71.30
27671;DHT22;15077;49.704;9.908;2023-01-04T08:31:30;8.70;71.30
27671;DHT22;15077;49.704;9.908;2023-01-04T08:33:59;8.70;71.20
27671;DHT22;15077;49.704;9.908;2023-01-04T08:36:32;8.70;71.20
27671;DHT22;15077;49.704;9.908;2023-01-04T08:39:04;8.80;71.00
27671;DHT22;15077;49.704;9.908;2023-01-04T08:41:33;8.80;71.00
27671;DHT22;15077;49.704;9.908;2023-01-04T08:44:23;8.90;70.90
27671;DHT22;15077;49.704;9.908;2023-01-04T08:46:51;8.90;70.70
27671;DHT22;15077;49.704;9.908;2023-01-04T08:49:18;9.00;70.60
27671;DHT22;15077;49.704;9.908;2023-01-04T08:51:45;9.00;70.50
27671;DHT22;15077;49.704;9.908;2023-01-04T08:54:11;9.00;70.50
27671;DHT22;15077;49.704;9.908;2023-01-04T08:56:38;9.10;70.50
27671;DHT22;15077;49.704;9.908;2023-01-04T08:59:04;9.10;70.40
27671;DHT22;15077;49.704;9.908;2023-01-04T09:01:35;9.10;70.40
27671;DHT22;15077;49.704;9.908;2023-01-04T09:04:01;9.20;70.40
27671;DHT22;15077;49.704;9.908;2023-01-04T09:06:27;9.20;70.30
27671;DHT22;15077;49.704;9.908;2023-01-04T09:08:56;9.20;70.20
27671;DHT22;15077;49.704;9.908;2023-01-04T09:11:22;9.30;70.20
27671;DHT22;15077;49.704;9.908;2023-01-04T09:13:54;9.30;70.20
27671;DHT22;15077;49.704;9.908;2023-01-04T09:16:21;9.30;70.10
27671;DHT22;15077;49.704;9.908;2023-01-04T09:18:48;9.30;69.90
27671;DHT22;15077;49.704;9.908;2023-01-04T09:21:19;9.40;70.00
27671;DHT22;15077;49.704;9.908;2023-01-04T09:23:48;9.40;69.90
27671;DHT22;15077;49.704;9.908;2023-01-04T09:26:19;9.50;69.80
27671;DHT22;15077;49.704;9.908;2023-01-04T09:28:53;9.40;69.70
27671;DHT22;15077;49.704;9.908;2023-01-04T09:31:25;9.50;69.80
27671;DHT22;15077;49.704;9.908;2023-01-04T09:33:55;9.50;69.80
27671;DHT22;15077;49.704;9.908;2023-01-04T09:36:22;9.50;69.60
27671;DHT22;15077;49.704;9.908;2023-01-04T09:38:50;9.50;69.50
27671;DHT22;15077;49.704;9.908;2023-01-04T09:41:29;9.60;69.60
27671;DHT22;15077;49.704;9.908;2023-01-04T09:44:09;9.60;69.50
27671;DHT22;15077;49.704;9.908;2023-01-04T09:47:03;9.60;69.40
27671;DHT22;15077;49.704;9.908;2023-01-04T09:50:02;9.70;69.50
27671;DHT22;15077;49.704;9.908;2023-01-04T09:52:47;9.70;69.50
27671;DHT22;15077;49.704;9.908;2023-01-04T09:55:31;9.70;69.60
27671;DHT22;15077;49.704;9.908;2023-01-04T09:58:30;9.80;69.80
27671;DHT22;15077;49.704;9.908;2023-01-04T10:01:10;9.80;69.80
27671;DHT22;15077;49.704;9.908;2023-01-04T10:04:09;9.80;69.80
27671;DHT22;15077;49.704;9.908;2023-01-04T10:06:42;9.90;69.90
27671;DHT22;15077;49.704;9.908;2023-01-04T10:09:13;9.90;70.00
27671;DHT22;15077;49.704;9.908;2023-01-04T10:15:15;9.90;70.20
27671;DHT22;15077;49.704;9.908;2023-01-04T10:20:48;9.90;70.10
27671;DHT22;15077;49.704;9.908;2023-01-04T10:26:32;10.00;70.20
27671;DHT22;15077;49.704;9.908;2023-01-04T10:33:03;10.00;70.40
27671;DHT22;15077;49.704;9.908;2023-01-04T10:35:36;10.10;70.40
27671;DHT22;15077;49.704;9.908;2023-01-04T10:38:17;10.10;70.30
27671;DHT22;15077;49.704;9.908;2023-01-04T10:40:51;10.10;70.30
27671;DHT22;15077;49.704;9.908;2023-01-04T10:43:24;10.10;70.20
27671;DHT22;15077;49.704;9.908;2023-01-04T10:46:24;10.10;70.10
27671;DHT22;15077;49.704;9.908;2023-01-04T10:52:14;10.20;70.10
27671;DHT22;15077;49.704;9.908;2023-01-04T10:57:47;10.30;69.80
27671;DHT22;15077;49.704;9.908;2023-01-04T11:05:42;10.40;69.60
27671;DHT22;15077;49.704;9.908;2023-01-04T11:08:22;10.50;69.60
27671;DHT22;15077;49.704;9.908;2023-01-04T11:13:27;10.50;69.60
27671;DHT22;15077;49.704;9.908;2023-01-04T11:15:53;10.60;69.60
27671;DHT22;15077;49.704;9.908;2023-01-04T11:18:19;10.60;69.60
27671;DHT22;15077;49.704;9.908;2023-01-04T11:20:46;10.60;69.50
27671;DHT22;15077;49.704;9.908;2023-01-04T11:23:16;10.70;69.60
27671;DHT22;15077;49.704;9.908;2023-01-04T11:25:51;10.70;69.60
27671;DHT22;15077;49.704;9.908;2023-01-04T11:31:36;10.80;69.80
27671;DHT22;15077;49.704;9.908;2023-01-04T11:34:15;10.80;70.00
27671;DHT22;15077;49.704;9.908;2023-01-04T11:36:45;10.80;70.00
27671;DHT22;15077;49.704;9.908;2023-01-04T11:39:25;10.80;70.00
27671;DHT22;15077;49.704;9.908;2023-01-04T11:44:25;10.80;70.10
27671;DHT22;15077;49.704;9.908;2023-01-04T11:49:39;10.90;70.40
27671;DHT22;15077;49.704;9.908;2023-01-04T11:52:05;10.90;70.40
27671;DHT22;15077;49.704;9.908;2023-01-04T11:55:30;10.90;70.50
27671;DHT22;15077;49.704;9.908;2023-01-04T11:58:13;10.90;70.70
27671;DHT22;15077;49.704;9.908;2023-01-04T12:00:55;10.90;70.80
27671;DHT22;15077;49.704;9.908;2023-01-04T12:05:55;10.90;70.90
27671;DHT22;15077;49.704;9.908;2023-01-04T12:08:33;10.80;71.00
27671;DHT22;15077;49.704;9.908;2023-01-04T12:11:03;10.80;71.50
27671;DHT22;15077;49.704;9.908;2023-01-04T12:13:37;10.80;71.40
27671;DHT22;15077;49.704;9.908;2023-01-04T12:18:38;10.80;71.90
27671;DHT22;15077;49.704;9.908;2023-01-04T12:21:13;10.80;71.90
27671;DHT22;15077;49.704;9.908;2023-01-04T12:23:44;10.80;72.00
27671;DHT22;15077;49.704;9.908;2023-01-04T12:26:12;10.90;72.10
27671;DHT22;15077;49.704;9.908;2023-01-04T12:28:48;10.90;72.20
27671;DHT22;15077;49.704;9.908;2023-01-04T12:33:51;10.90;72.10
27671;DHT22;15077;49.704;9.908;2023-01-04T12:50:18;11.00;72.90
27671;DHT22;15077;49.704;9.908;2023-01-04T12:53:00;11.00;72.90
27671;DHT22;15077;49.704;9.908;2023-01-04T12:57:56;11.00;73.50
27671;DHT22;15077;49.704;9.908;2023-01-04T13:00:27;11.00;72.90
27671;DHT22;15077;49.704;9.908;2023-01-04T13:05:44;11.00;73.10
27671;DHT22;15077;49.704;9.908;2023-01-04T13:08:16;11.00;73.10
27671;DHT22;15077;49.704;9.908;2023-01-04T13:10:47;11.00;73.10
27671;DHT22;15077;49.704;9.908;2023-01-04T13:13:48;11.00;73.10
27671;DHT22;15077;49.704;9.908;2023-01-04T13:17:05;11.00;73.40
27671;DHT22;15077;49.704;9.908;2023-01-04T13:19:38;11.00;73.30
27671;DHT22;15077;49.704;9.908;2023-01-04T13:22:16;11.00;73.00
27671;DHT22;15077;49.704;9.908;2023-01-04T13:24:46;11.00;73.10
27671;DHT22;15077;49.704;9.908;2023-01-04T13:27:21;11.10;73.20
27671;DHT22;15077;49.704;9.908;2023-01-04T13:29:49;11.10;73.20
27671;DHT22;15077;49.704;9.908;2023-01-04T13:32:24;11.10;73.10
27671;DHT22;15077;49.704;9.908;2023-01-04T13:35:30;11.10;73.20
27671;DHT22;15077;49.704;9.908;2023-01-04T13:37:49;11.20;73.20
27671;DHT22;15077;49.704;9.908;2023-01-04T13:40:25;11.20;73.10
27671;DHT22;15077;49.704;9.908;2023-01-04T13:43:11;11.20;73.00
27671;DHT22;15077;49.704;9.908;2023-01-04T13:48:41;11.30;72.90
27671;DHT22;15077;49.704;9.908;2023-01-04T13:54:20;11.40;72.80
27671;DHT22;15077;49.704;9.908;2023-01-04T13:56:48;11.40;72.90
27671;DHT22;15077;49.704;9.908;2023-01-04T13:59:16;11.40;72.70
27671;DHT22;15077;49.704;9.908;2023-01-04T14:01:46;11.40;72.70
27671;DHT22;15077;49.704;9.908;2023-01-04T14:04:26;11.50;72.80
27671;DHT22;15077;49.704;9.908;2023-01-04T14:06:57;11.50;73.00
27671;DHT22;15077;49.704;9.908;2023-01-04T14:09:27;11.50;73.00
27671;DHT22;15077;49.704;9.908;2023-01-04T14:12:07;11.50;73.20
27671;DHT22;15077;49.704;9.908;2023-01-04T14:14:48;11.50;73.30
27671;DHT22;15077;49.704;9.908;2023-01-04T14:28:35;11.50;74.10
27671;DHT22;15077;49.704;9.908;2023-01-04T14:36:33;11.50;73.90
27671;DHT22;15077;49.704;9.908;2023-01-04T14:41:37;11.50;74.00
27671;DHT22;15077;49.704;9.908;2023-01-04T14:44:12;11.50;74.10
27671;DHT22;15077;49.704;9.908;2023-01-04T14:46:41;11.50;74.00
27671;DHT22;15077;49.704;9.908;2023-01-04T14:49:11;11.50;74.10
27671;DHT22;15077;49.704;9.908;2023-01-04T14:51:47;11.50;74.20
27671;DHT22;15077;49.704;9.908;2023-01-04T14:54:19;11.50;74.20
27671;DHT22;15077;49.704;9.908;2023-01-04T14:56:46;11.50;74.30
27671;DHT22;15077;49.704;9.908;2023-01-04T14:59:12;11.50;74.30
27671;DHT22;15077;49.704;9.908;2023-01-04T15:01:39;11.50;74.30
27671;DHT22;15077;49.704;9.908;2023-01-04T15:04:05;11.50;74.40
27671;DHT22;15077;49.704;9.908;2023-01-04T15:06:33;11.50;74.40
27671;DHT22;15077;49.704;9.908;2023-01-04T15:08:59;11.40;74.40
27671;DHT22;15077;49.704;9.908;2023-01-04T15:11:25;11.40;74.40
27671;DHT22;15077;49.704;9.908;2023-01-04T15:13:53;11.50;74.40
27671;DHT22;15077;49.704;9.908;2023-01-04T15:16:19;11.50;74.40
27671;DHT22;15077;49.704;9.908;2023-01-04T15:18:45;11.40;74.30
27671;DHT22;15077;49.704;9.908;2023-01-04T15:21:12;11.50;74.50
27671;DHT22;15077;49.704;9.908;2023-01-04T15:23:39;11.50;74.50
27671;DHT22;15077;49.704;9.908;2023-01-04T15:26:07;11.50;74.50
27671;DHT22;15077;49.704;9.908;2023-01-04T15:28:34;11.50;74.50
27671;DHT22;15077;49.704;9.908;2023-01-04T15:31:05;11.50;74.50
27671;DHT22;15077;49.704;9.908;2023-01-04T15:33:36;11.50;74.60
27671;DHT22;15077;49.704;9.908;2023-01-04T15:36:05;11.50;74.50
27671;DHT22;15077;49.704;9.908;2023-01-04T15:38:36;11.50;74.60
27671;DHT22;15077;49.704;9.908;2023-01-04T15:41:12;11.50;74.50
27671;DHT22;15077;49.704;9.908;2023-01-04T15:43:59;11.50;74.70
27671;DHT22;15077;49.704;9.908;2023-01-04T15:46:25;11.50;74.50
27671;DHT22;15077;49.704;9.908;2023-01-04T15:48:51;11.50;74.50
27671;DHT22;15077;49.704;9.908;2023-01-04T15:51:17;11.50;74.60
27671;DHT22;15077;49.704;9.908;2023-01-04T15:53:44;11.50;74.60
27671;DHT22;15077;49.704;9.908;2023-01-04T15:56:11;11.50;74.70
27671;DHT22;15077;49.704;9.908;2023-01-04T15:58:39;11.50;74.80
27671;DHT22;15077;49.704;9.908;2023-01-04T16:01:14;11.50;74.80
27671;DHT22;15077;49.704;9.908;2023-01-04T16:03:42;11.50;75.00
27671;DHT22;15077;49.704;9.908;2023-01-04T16:06:12;11.50;75.00
27671;DHT22;15077;49.704;9.908;2023-01-04T16:08:40;11.50;75.10
27671;DHT22;15077;49.704;9.908;2023-01-04T16:11:15;11.50;75.10
27671;DHT22;15077;49.704;9.908;2023-01-04T16:13:47;11.50;75.30
27671;DHT22;15077;49.704;9.908;2023-01-04T16:16:15;11.50;75.20
27671;DHT22;15077;49.704;9.908;2023-01-04T16:18:50;11.50;75.20
27671;DHT22;15077;49.704;9.908;2023-01-04T16:21:20;11.50;75.40
27671;DHT22;15077;49.704;9.908;2023-01-04T16:23:52;11.50;75.50
27671;DHT22;15077;49.704;9.908;2023-01-04T16:26:19;11.40;75.50
27671;DHT22;15077;49.704;9.908;2023-01-04T16:28:52;11.40;75.60
27671;DHT22;15077;49.704;9.908;2023-01-04T16:31:20;11.40;75.70
27671;DHT22;15077;49.704;9.908;2023-01-04T16:33:50;11.40;75.60
27671;DHT22;15077;49.704;9.908;2023-01-04T16:36:17;11.40;75.80
27671;DHT22;15077;49.704;9.908;2023-01-04T16:38:44;11.40;75.70
27671;DHT22;15077;49.704;9.908;2023-01-04T16:41:12;11.40;75.70
27671;DHT22;15077;49.704;9.908;2023-01-04T16:43:50;11.40;75.70
27671;DHT22;15077;49.704;9.908;2023-01-04T16:46:22;11.50;75.80
27671;DHT22;15077;49.704;9.908;2023-01-04T16:51:28;11.40;76.10
27671;DHT22;15077;49.704;9.908;2023-01-04T16:53:56;11.40;75.90
27671;DHT22;15077;49.704;9.908;2023-01-04T16:56:23;11.40;76.00
27671;DHT22;15077;49.704;9.908;2023-01-04T16:58:50;11.40;76.00
27671;DHT22;15077;49.704;9.908;2023-01-04T17:01:25;11.40;75.90
27671;DHT22;15077;49.704;9.908;2023-01-04T17:03:57;11.40;76.00
27671;DHT22;15077;49.704;9.908;2023-01-04T17:06:31;11.40;75.90
27671;DHT22;15077;49.704;9.908;2023-01-04T17:09:00;11.40;75.90
27671;DHT22;15077;49.704;9.908;2023-01-04T17:11:32;11.40;75.80
27671;DHT22;15077;49.704;9.908;2023-01-04T17:13:59;11.50;76.00
27671;DHT22;15077;49.704;9.908;2023-01-04T17:16:26;11.50;75.90
27671;DHT22;15077;49.704;9.908;2023-01-04T17:18:54;11.50;75.90
27671;DHT22;15077;49.704;9.908;2023-01-04T17:21:22;11.50;75.90
27671;DHT22;15077;49.704;9.908;2023-01-04T17:23:52;11.50;76.00
27671;DHT22;15077;49.704;9.908;2023-01-04T17:26:25;11.50;76.00
27671;DHT22;15077;49.704;9.908;2023-01-04T17:28:54;11.60;76.00
27671;DHT22;15077;49.704;9.908;2023-01-04T17:31:33;11.60;75.90
27671;DHT22;15077;49.704;9.908;2023-01-04T17:34:04;11.60;76.00
27671;DHT22;15077;49.704;9.908;2023-01-04T17:36:31;11.60;75.90
27671;DHT22;15077;49.704;9.908;2023-01-04T17:38:58;11.60;76.00
27671;DHT22;15077;49.704;9.908;2023-01-04T17:41:26;11.60;75.90
27671;DHT22;15077;49.704;9.908;2023-01-04T17:43:56;11.60;75.90
27671;DHT22;15077;49.704;9.908;2023-01-04T17:46:29;11.70;76.00
27671;DHT22;15077;49.704;9.908;2023-01-04T17:49:00;11.60;76.10
27671;DHT22;15077;49.704;9.908;2023-01-04T17:51:28;11.60;76.10
27671;DHT22;15077;49.704;9.908;2023-01-04T17:53:59;11.70;76.10
27671;DHT22;15077;49.704;9.908;2023-01-04T17:56:28;11.70;76.10
27671;DHT22;15077;49.704;9.908;2023-01-04T17:58:59;11.70;76.10
27671;DHT22;15077;49.704;9.908;2023-01-04T18:01:28;11.70;76.00
27671;DHT22;15077;49.704;9.908;2023-01-04T18:03:59;11.80;76.00
27671;DHT22;15077;49.704;9.908;2023-01-04T18:06:31;11.80;76.00
27671;DHT22;15077;49.704;9.908;2023-01-04T18:08:59;11.80;76.00
27671;DHT22;15077;49.704;9.908;2023-01-04T18:11:25;11.80;76.00
27671;DHT22;15077;49.704;9.908;2023-01-04T18:13:52;11.80;76.00
27671;DHT22;15077;49.704;9.908;2023-01-04T18:16:20;11.80;76.00